Heber, Arizona
Current Conditions -  °F | °C
As of 10:55 AM on Saturday 25 Oct 2014 (Local Time) from KSOW Reporting Station
Clear Clear  
Wind Chill: 70°   Ceiling: Unl
Heat Index: 70°   Visibility: 10mi
Dew Point: 39°   Wind: 14mph
Humidity: 33%   Direction: 220°SW
Pressure: 30.39"   Gusts: 20mph
Location:  34.43°N, 110.59°W
Report Text: KSOW 251755Z AUTO 22012G17KT 10SM CLR 21/04 A3039 RMK AO2
Loading
Personal Weather Stations






























Interactive Weather Map
Tropical Storm Tracking
New forecast layout! Learn more

10-Day Weather Forecast

Advertisements
Track Severe Weather on mobile